createdAt,value
2022-08-08T00:00:50.534Z,5.23
2022-08-08T00:02:33.007Z,1.97
2022-08-08T00:05:09.698Z,3.23
2022-08-08T00:07:41.244Z,5.93
2022-08-08T00:10:13.584Z,3.63
2022-08-08T00:12:48.426Z,3.73
2022-08-08T00:15:57.511Z,3.93
2022-08-08T00:18:22.023Z,2.53
2022-08-08T00:20:51.863Z,3.77
2022-08-08T00:23:28.476Z,2.07
2022-08-08T00:26:13.352Z,3.80
2022-08-08T00:28:44.585Z,2.67
2022-08-08T00:32:20.243Z,3.03
2022-08-08T00:34:32.387Z,4.63
2022-08-08T00:37:47.124Z,2.73
2022-08-08T00:41:12.667Z,4.00
2022-08-08T00:43:24.656Z,4.80
2022-08-08T00:46:17.748Z,4.30
2022-08-08T00:49:21.885Z,7.83
2022-08-08T00:52:08.837Z,5.50
2022-08-08T00:55:05.720Z,6.37
2022-08-08T00:57:57.090Z,7.13
2022-08-08T01:00:27.391Z,4.37
2022-08-08T01:04:01.386Z,3.33
2022-08-08T01:06:17.995Z,2.87
2022-08-08T01:09:36.529Z,9.03
2022-08-08T01:12:13.465Z,3.63
2022-08-08T01:15:00.697Z,3.77
2022-08-08T01:17:53.306Z,5.50
2022-08-08T01:20:35.591Z,4.77
2022-08-08T01:24:05.955Z,2.07
2022-08-08T01:26:24.136Z,3.40
2022-08-08T01:29:18.111Z,4.03
2022-08-08T01:32:15.603Z,5.87
2022-08-08T01:35:11.407Z,3.70
2022-08-08T01:37:59.187Z,4.60
2022-08-08T01:40:29.505Z,5.33
2022-08-08T01:43:02.910Z,8.17
2022-08-08T01:45:39.047Z,4.90
2022-08-08T01:48:16.121Z,2.33
2022-08-08T01:51:29.844Z,6.37
2022-08-08T01:55:19.646Z,3.67
2022-08-08T01:57:02.192Z,8.80
2022-08-08T01:59:38.079Z,5.80
2022-08-08T02:02:34.735Z,3.30
2022-08-08T02:05:14.161Z,4.83
2022-08-08T02:07:56.675Z,5.33
2022-08-08T02:10:37.268Z,7.23
2022-08-08T02:13:54.397Z,4.43
2022-08-08T02:16:21.288Z,7.60
2022-08-08T02:18:58.813Z,5.83
2022-08-08T02:21:48.926Z,4.67
2022-08-08T02:24:20.281Z,2.23
2022-08-08T02:26:52.798Z,4.30
2022-08-08T02:29:47.073Z,10.33
2022-08-08T02:32:36.014Z,4.17
2022-08-08T02:36:02.524Z,6.50
2022-08-08T02:38:30.342Z,3.53
2022-08-08T02:41:17.911Z,6.43
2022-08-08T02:44:43.140Z,8.20
2022-08-08T02:47:16.963Z,5.30
2022-08-08T02:50:05.729Z,4.80
2022-08-08T02:52:58.775Z,5.13
2022-08-08T02:55:48.021Z,11.27
2022-08-08T02:58:47.730Z,7.63
2022-08-08T03:01:32.653Z,5.43
2022-08-08T03:05:03.758Z,5.67
2022-08-08T03:07:41.572Z,4.33
2022-08-08T03:10:37.082Z,5.23
2022-08-08T03:13:33.885Z,5.17
2022-08-08T03:16:36.041Z,5.27
2022-08-08T03:19:21.135Z,4.80
2022-08-08T03:21:58.917Z,7.13
2022-08-08T03:24:29.387Z,4.60
2022-08-08T03:27:00.398Z,5.30
2022-08-08T03:29:54.517Z,11.17
2022-08-08T03:32:41.392Z,5.43
2022-08-08T03:35:11.485Z,2.67
2022-08-08T03:38:52.653Z,5.63
2022-08-08T03:40:32.122Z,10.33
2022-08-08T03:43:15.636Z,6.73
2022-08-08T03:46:06.816Z,8.20
2022-08-08T03:49:09.491Z,9.63
2022-08-08T03:51:40.613Z,6.67
2022-08-08T03:54:10.401Z,7.40
2022-08-08T03:56:46.386Z,5.93
2022-08-08T03:59:23.088Z,3.77
2022-08-08T04:02:13.012Z,5.97
2022-08-08T04:04:39.909Z,6.20
2022-08-08T04:07:10.421Z,3.97
2022-08-08T04:10:00.666Z,6.43
2022-08-08T04:12:35.080Z,5.47
2022-08-08T04:15:03.963Z,5.73
2022-08-08T04:17:57.745Z,2.90
2022-08-08T04:20:20.346Z,4.63
2022-08-08T04:22:57.112Z,7.97
2022-08-08T04:25:29.940Z,5.83
2022-08-08T04:28:37.084Z,10.37
2022-08-08T04:30:50.508Z,10.37
2022-08-08T04:33:23.501Z,8.67
2022-08-08T04:35:51.804Z,5.20
2022-08-08T04:38:21.335Z,4.07
2022-08-08T04:40:51.738Z,7.13
2022-08-08T04:43:31.553Z,7.60
2022-08-08T04:46:12.246Z,5.20
2022-08-08T04:48:43.372Z,13.03
2022-08-08T04:51:11.982Z,4.30
2022-08-08T04:54:36.106Z,4.30
2022-08-08T04:56:33.896Z,6.53
2022-08-08T04:59:03.357Z,6.23
2022-08-08T05:01:35.682Z,5.63
2022-08-08T05:04:16.953Z,5.20
2022-08-08T05:06:47.252Z,9.53
2022-08-08T05:09:18.787Z,5.53
2022-08-08T05:11:56.939Z,6.27
2022-08-08T05:14:26.870Z,3.93
2022-08-08T05:17:01.379Z,6.93
2022-08-08T05:20:09.655Z,5.97
2022-08-08T05:22:18.278Z,6.67
2022-08-08T05:24:48.209Z,5.90
2022-08-08T05:27:17.003Z,7.00
2022-08-08T05:29:51.642Z,11.50
2022-08-08T05:32:24.511Z,8.83
2022-08-08T05:34:55.000Z,7.20
2022-08-08T05:37:39.227Z,6.70
2022-08-08T05:40:14.842Z,6.27
2022-08-08T05:42:45.587Z,11.27
2022-08-08T05:45:25.519Z,7.33
2022-08-08T05:48:01.624Z,13.60
2022-08-08T05:50:38.780Z,20.77
2022-08-08T05:53:53.525Z,57.13
2022-08-08T05:56:07.737Z,144.50
2022-08-08T05:58:57.020Z,369.40
2022-08-08T06:01:55.443Z,742.17
2022-08-08T06:04:22.560Z,901.93
2022-08-08T06:15:03.789Z,965.83
2022-08-08T06:29:49.316Z,692.67
2022-08-08T06:32:09.928Z,1022.57
2022-08-08T06:34:41.088Z,1081.33
2022-08-08T06:37:24.418Z,1019.03
2022-08-08T06:44:58.611Z,1123.43
2022-08-08T06:50:31.956Z,840.70
2022-08-08T06:53:01.516Z,1022.47
2022-08-08T06:55:42.242Z,1154.17
2022-08-08T06:58:11.707Z,1112.37
2022-08-08T07:00:41.185Z,937.93
2022-08-08T07:03:19.401Z,791.97
2022-08-08T07:06:02.527Z,540.37
2022-08-08T07:08:31.618Z,413.00
2022-08-08T07:11:01.209Z,254.73
2022-08-08T07:13:34.358Z,286.47
2022-08-08T07:16:12.344Z,189.73
2022-08-08T07:18:46.265Z,184.80
2022-08-08T07:21:20.761Z,183.73
2022-08-08T07:24:00.938Z,137.07
2022-08-08T07:26:35.405Z,110.03
2022-08-08T07:29:05.642Z,98.07
2022-08-08T07:31:37.275Z,109.40
2022-08-08T07:34:08.770Z,93.03
2022-08-08T07:36:42.076Z,89.60
2022-08-08T07:39:17.332Z,96.03
2022-08-08T07:41:58.559Z,88.80
2022-08-08T07:44:40.199Z,99.93
2022-08-08T07:47:09.790Z,87.40
2022-08-08T07:49:40.226Z,80.00
2022-08-08T07:52:13.440Z,78.33
2022-08-08T07:54:44.983Z,82.20
2022-08-08T07:57:23.809Z,72.00
2022-08-08T07:59:59.755Z,78.97
2022-08-08T08:02:34.716Z,76.30
2022-08-08T08:05:15.143Z,72.40
2022-08-08T08:07:45.902Z,80.37
2022-08-08T08:10:14.930Z,68.73
2022-08-08T08:12:48.967Z,70.60
2022-08-08T08:15:21.496Z,75.07
2022-08-08T08:17:55.413Z,70.80
2022-08-08T08:20:30.306Z,63.67
2022-08-08T08:23:00.447Z,62.87
2022-08-08T08:25:42.091Z,66.97
2022-08-08T08:28:21.123Z,68.10
2022-08-08T08:30:52.159Z,67.13
2022-08-08T08:33:21.725Z,56.13
2022-08-08T08:36:19.844Z,61.93
2022-08-08T08:38:49.490Z,73.63
2022-08-08T08:41:20.318Z,83.80
2022-08-08T08:43:52.145Z,70.90
2022-08-08T08:46:25.995Z,76.47
2022-08-08T08:48:55.231Z,73.70
2022-08-08T08:51:26.011Z,80.47
2022-08-08T08:53:59.707Z,81.27
2022-08-08T08:56:29.708Z,76.27
2022-08-08T08:58:58.631Z,87.97
2022-08-08T09:01:32.718Z,106.73
2022-08-08T09:04:01.761Z,98.83
2022-08-08T09:06:34.088Z,121.27
2022-08-08T09:09:18.837Z,112.97
2022-08-08T09:12:01.499Z,140.30
2022-08-08T09:14:30.711Z,136.00
2022-08-08T09:16:58.839Z,138.33
2022-08-08T09:21:59.987Z,141.60
2022-08-08T09:22:25.836Z,161.57
2022-08-08T09:24:58.453Z,185.07
2022-08-08T09:27:55.898Z,170.87
2022-08-08T09:30:17.891Z,200.27
2022-08-08T09:33:55.431Z,224.47
2022-08-08T09:35:48.644Z,237.00
2022-08-08T09:38:23.147Z,216.33
2022-08-08T09:40:59.797Z,233.23
2022-08-08T09:44:05.115Z,254.30
2022-08-08T09:46:25.445Z,281.70
2022-08-08T09:49:04.406Z,296.83
2022-08-08T09:52:06.447Z,280.53
2022-08-08T09:54:38.200Z,300.77
2022-08-08T09:57:16.057Z,316.43
2022-08-08T10:00:01.908Z,303.63
2022-08-08T10:02:36.391Z,353.90
2022-08-08T10:05:14.605Z,375.20
2022-08-08T10:07:47.974Z,383.83
2022-08-08T10:10:19.789Z,383.60
2022-08-08T10:13:14.118Z,379.70
2022-08-08T10:16:00.633Z,420.30
2022-08-08T10:18:30.890Z,455.67
2022-08-08T10:21:08.162Z,441.57
2022-08-08T10:23:44.831Z,457.60
2022-08-08T10:26:25.911Z,447.40
2022-08-08T10:29:04.743Z,509.17
2022-08-08T10:32:06.367Z,492.67
2022-08-08T10:34:38.079Z,595.87
2022-08-08T10:37:08.622Z,546.33
2022-08-08T10:39:54.485Z,530.40
2022-08-08T10:42:27.408Z,583.30
2022-08-08T10:45:02.789Z,538.07
2022-08-08T10:47:43.531Z,552.87
2022-08-08T10:50:15.654Z,576.57
2022-08-08T10:52:44.686Z,601.27
2022-08-08T10:55:15.608Z,568.93
2022-08-08T10:58:05.658Z,636.13
2022-08-08T11:00:48.697Z,630.70
2022-08-08T11:03:37.147Z,698.63
2022-08-08T11:06:13.980Z,700.47
2022-08-08T11:08:49.990Z,740.70
2022-08-08T11:11:32.210Z,721.47
2022-08-08T11:14:12.369Z,746.40
2022-08-08T11:16:46.647Z,717.67
2022-08-08T11:19:17.089Z,709.60
2022-08-08T11:21:55.583Z,738.57
2022-08-08T11:24:27.087Z,757.13
2022-08-08T11:26:58.413Z,776.40
2022-08-08T11:29:41.501Z,771.67
2022-08-08T11:32:18.960Z,817.53
2022-08-08T11:38:37.174Z,845.30
2022-08-08T11:40:26.622Z,876.13
2022-08-08T11:42:56.157Z,862.87
2022-08-08T11:45:24.726Z,937.10
2022-08-08T11:48:02.665Z,1355.03
2022-08-08T11:57:23.941Z,1372.77
2022-08-08T12:06:15.910Z,1354.77
2022-08-08T12:08:44.826Z,1358.43
2022-08-08T12:24:15.825Z,1382.47
2022-08-08T12:30:04.408Z,1362.00
2022-08-08T12:32:42.036Z,1283.37
2022-08-08T12:35:20.770Z,1264.23
2022-08-08T13:08:03.830Z,608.38
2022-08-08T13:10:32.697Z,1314.43
2022-08-08T13:13:06.215Z,1349.28
2022-08-08T13:29:01.338Z,1331.70
2022-08-08T13:58:08.336Z,1258.90
2022-08-08T14:04:35.257Z,1276.07
2022-08-08T14:14:14.384Z,1256.93
2022-08-08T14:24:07.768Z,1243.30
2022-08-08T14:26:33.300Z,1239.25
2022-08-08T14:39:11.513Z,1239.75
2022-08-08T14:51:52.001Z,1248.13
2022-08-08T15:11:06.316Z,1246.07
2022-08-08T15:20:36.341Z,1238.75
2022-08-08T15:46:03.899Z,1238.32
2022-08-08T16:00:26.733Z,1321.28
2022-08-08T16:02:57.839Z,1237.75
2022-08-08T16:05:35.486Z,1231.78
2022-08-08T16:13:09.302Z,1241.95
2022-08-08T16:25:11.467Z,1272.80
2022-08-08T16:27:43.579Z,1233.05
2022-08-08T16:33:19.253Z,1228.95
2022-08-08T17:16:37.617Z,1251.85
2022-08-08T17:19:05.702Z,1229.80
2022-08-08T17:21:41.384Z,1231.88
2022-08-08T17:24:10.055Z,1229.85
2022-08-08T18:10:13.853Z,1229.90
2022-08-08T18:12:42.871Z,1225.63
